createdAt,value
2022-09-30T00:03:18.753Z,0.5
2022-09-30T00:33:18.799Z,0.5
2022-09-30T00:43:18.802Z,0.5
2022-09-30T00:53:18.846Z,0.5
2022-09-30T01:03:18.848Z,0.4
2022-09-30T01:13:18.902Z,0.5
2022-09-30T01:23:18.906Z,0.5
2022-09-30T01:53:18.994Z,0.5
2022-09-30T02:03:18.979Z,0.5
2022-09-30T02:13:19.037Z,0.4
2022-09-30T02:33:19.168Z,0.5
2022-09-30T02:43:19.124Z,0.4
2022-09-30T02:53:19.152Z,0.4
2022-09-30T03:03:19.167Z,0.4
2022-09-30T03:13:19.183Z,0.4
2022-09-30T03:23:19.165Z,0.4
2022-09-30T03:33:19.210Z,0.3
2022-09-30T03:43:19.230Z,0.4
2022-09-30T03:53:19.272Z,0.4
2022-09-30T04:03:19.355Z,0.4
2022-09-30T04:33:19.385Z,0.4
2022-09-30T04:43:19.374Z,0.4
2022-09-30T04:53:19.414Z,0.3
2022-09-30T05:13:19.593Z,0.3
2022-09-30T05:33:19.527Z,0.4
2022-09-30T05:43:19.529Z,0.3
2022-09-30T05:53:19.576Z,0.3
2022-09-30T06:03:19.584Z,0.4
2022-09-30T06:13:19.638Z,0.3
2022-09-30T07:33:19.806Z,1.3
2022-09-30T07:43:19.807Z,1.6
2022-09-30T08:13:19.925Z,2.6
2022-09-30T08:23:19.887Z,3.4
2022-09-30T08:43:19.958Z,3.8
2022-09-30T09:13:20.020Z,4.3
2022-09-30T09:33:20.036Z,5.3
2022-09-30T09:53:20.071Z,5.6
2022-09-30T10:03:20.057Z,6.1
2022-09-30T10:13:20.086Z,6.3
2022-09-30T10:33:20.131Z,5.9
2022-09-30T10:43:20.119Z,6.5
2022-09-30T11:03:20.280Z,7
2022-09-30T11:13:20.218Z,7.9
2022-09-30T11:23:20.202Z,8.3
2022-09-30T11:33:20.191Z,8.5
2022-09-30T11:43:20.255Z,9.4
2022-09-30T11:53:20.229Z,9.2
2022-09-30T12:03:20.304Z,9.5
2022-09-30T12:23:20.307Z,10.1
2022-09-30T12:33:20.303Z,9.2
2022-09-30T12:43:20.375Z,8.6
2022-09-30T12:53:20.338Z,8
2022-09-30T13:03:20.373Z,8.6
2022-09-30T13:13:20.343Z,8.4
2022-09-30T13:23:20.393Z,7.9
2022-09-30T13:43:20.415Z,7.4
2022-09-30T13:53:20.399Z,6.9
2022-09-30T14:03:20.490Z,7.3
2022-09-30T14:13:20.455Z,7.4
2022-09-30T14:23:20.489Z,7.5
2022-09-30T14:33:20.489Z,7.9
2022-09-30T14:43:20.537Z,7.7
2022-09-30T14:53:20.530Z,7.5
2022-09-30T15:03:20.593Z,7.1
2022-09-30T15:13:20.568Z,7.2
2022-09-30T15:23:20.594Z,7.1
2022-09-30T15:33:20.579Z,7.7
2022-09-30T15:53:25.193Z,7.1
2022-09-30T16:03:20.746Z,7.2
2022-09-30T16:13:20.679Z,6.9
2022-09-30T16:33:20.724Z,6.8
2022-09-30T16:53:20.750Z,6.6
2022-09-30T17:03:20.750Z,6.5
2022-09-30T17:13:20.830Z,6.5
2022-09-30T17:23:20.786Z,6.2
2022-09-30T17:33:20.829Z,6
2022-09-30T17:53:20.870Z,6
2022-09-30T18:13:20.876Z,5.4
2022-09-30T18:23:20.894Z,5.3
2022-09-30T18:33:20.937Z,5.3
2022-09-30T18:43:20.926Z,5.1
2022-09-30T19:23:21.037Z,4.8
2022-09-30T19:33:21.022Z,4.7
2022-09-30T19:53:30.127Z,4.1
2022-09-30T20:03:21.134Z,4.1
2022-09-30T20:33:21.182Z,4.1
2022-09-30T23:13:21.502Z,3.1
2022-09-30T23:33:21.530Z,3.1
2022-09-30T23:43:21.536Z,3
2022-09-30T23:53:21.574Z,3
